createdAt,value
2019-02-08T00:01:06.862Z,95663.00
2019-02-08T00:03:56.348Z,95659.00
2019-02-08T00:06:38.043Z,95660.00
2019-02-08T00:09:27.684Z,95669.00
2019-02-08T00:12:10.197Z,95672.00
2019-02-08T00:14:59.765Z,95672.00
2019-02-08T00:17:42.306Z,95675.00
2019-02-08T00:23:32.915Z,95671.00
2019-02-08T00:26:22.457Z,95674.00
2019-02-08T00:29:04.654Z,95669.00
2019-02-08T00:31:54.176Z,95671.00
2019-02-08T00:34:36.606Z,95683.00
2019-02-08T00:37:26.134Z,95672.00
2019-02-08T00:43:23.611Z,95685.00
2019-02-08T00:46:13.170Z,95696.00
2019-02-08T00:48:56.606Z,95695.00
2019-02-08T00:51:46.120Z,95696.00
2019-02-08T00:54:28.760Z,95705.00
2019-02-08T00:57:18.250Z,95705.00
2019-02-08T01:00:47.529Z,95701.00
2019-02-08T01:03:29.598Z,95702.00
2019-02-08T01:06:19.112Z,95703.00
2019-02-08T01:09:01.520Z,95700.00
2019-02-08T01:11:51.085Z,95697.00
2019-02-08T01:14:33.687Z,95702.00
2019-02-08T01:17:23.211Z,95706.00
2019-02-08T01:20:08.739Z,95707.00
2019-02-08T01:22:51.267Z,95710.00
2019-02-08T01:25:42.855Z,95699.00
2019-02-08T01:28:24.740Z,95704.00
2019-02-08T01:31:33.150Z,95705.00
2019-02-08T01:34:15.573Z,95706.00
2019-02-08T01:37:05.068Z,95703.00
2019-02-08T01:39:47.055Z,95701.00
2019-02-08T01:45:44.731Z,95707.00
2019-02-08T01:48:34.227Z,95714.00
2019-02-08T01:51:16.097Z,95716.00
2019-02-08T01:54:05.704Z,95720.00
2019-02-08T01:56:48.299Z,95721.00
2019-02-08T01:59:37.737Z,95716.00
2019-02-08T02:02:20.412Z,95715.00
2019-02-08T02:08:17.750Z,95721.00
2019-02-08T02:11:07.261Z,95714.00
2019-02-08T02:13:49.944Z,95726.00
2019-02-08T02:16:39.482Z,95711.00
2019-02-08T02:19:21.430Z,95722.00
2019-02-08T02:22:03.279Z,95730.00
2019-02-08T02:24:52.770Z,95738.00
2019-02-08T02:27:42.289Z,95732.00
2019-02-08T02:31:12.365Z,95727.00
2019-02-08T02:33:54.385Z,95726.00
2019-02-08T02:36:43.892Z,95734.00
2019-02-08T02:39:26.377Z,95735.00
2019-02-08T02:42:34.772Z,95726.00
2019-02-08T02:45:18.726Z,95734.00
2019-02-08T02:51:36.799Z,95736.00
2019-02-08T02:54:26.342Z,95731.00
2019-02-08T02:57:34.749Z,95736.00
2019-02-08T03:00:18.113Z,95732.00
2019-02-08T03:06:16.141Z,95743.00
2019-02-08T03:12:00.280Z,95735.00
2019-02-08T03:14:49.768Z,95743.00
2019-02-08T03:17:39.285Z,95745.00
2019-02-08T03:20:21.343Z,95748.00
2019-02-08T03:23:03.329Z,95738.00
2019-02-08T03:25:52.834Z,95747.00
2019-02-08T03:28:35.450Z,95745.00
2019-02-08T03:31:24.960Z,95747.00
2019-02-08T03:34:07.458Z,95743.00
2019-02-08T03:37:16.008Z,95752.00
2019-02-08T03:39:57.624Z,95748.00
2019-02-08T03:42:47.122Z,95747.00
2019-02-08T03:45:33.198Z,95750.00
2019-02-08T03:48:22.716Z,95754.00
2019-02-08T03:51:04.627Z,95761.00
2019-02-08T03:56:41.328Z,95744.00
2019-02-08T03:59:41.539Z,95740.00
2019-02-08T04:02:31.085Z,95753.00
2019-02-08T04:05:13.181Z,95749.00
2019-02-08T04:08:02.649Z,95758.00
2019-02-08T04:10:45.020Z,95748.00
2019-02-08T04:13:34.549Z,95746.00
2019-02-08T04:16:17.248Z,95756.00
2019-02-08T04:22:15.012Z,95755.00
2019-02-08T04:31:08.261Z,95770.00
2019-02-08T04:33:50.817Z,95768.00
2019-02-08T04:36:40.392Z,95757.00
2019-02-08T04:39:23.451Z,95760.00
2019-02-08T04:42:13.000Z,95762.00
2019-02-08T04:44:55.016Z,95754.00
2019-02-08T04:47:44.606Z,95744.00
2019-02-08T04:50:27.220Z,95751.00
2019-02-08T04:56:23.690Z,95745.00
2019-02-08T04:59:13.246Z,95741.00
2019-02-08T05:02:02.771Z,95739.00
2019-02-08T05:04:45.308Z,95751.00
2019-02-08T05:07:53.714Z,95745.00
2019-02-08T05:10:35.998Z,95762.00
2019-02-08T05:16:26.637Z,95764.00
2019-02-08T05:19:08.381Z,95761.00
2019-02-08T05:21:57.891Z,95761.00
2019-02-08T05:24:46.027Z,95766.00
2019-02-08T05:27:33.663Z,95773.00
2019-02-08T05:30:20.487Z,95769.00
2019-02-08T05:33:09.973Z,95763.00
2019-02-08T05:35:53.195Z,95766.00
2019-02-08T05:38:42.739Z,95754.00
2019-02-08T05:41:25.191Z,95759.00
2019-02-08T05:44:33.605Z,95758.00
2019-02-08T05:47:15.953Z,95768.00
2019-02-08T05:50:45.668Z,95767.00
2019-02-08T05:53:27.832Z,95768.00
2019-02-08T05:56:17.328Z,95763.00
2019-02-08T05:58:59.772Z,95767.00
2019-02-08T06:04:56.229Z,95767.00
2019-02-08T06:07:45.775Z,95768.00
2019-02-08T06:10:35.300Z,95775.00
2019-02-08T06:13:17.011Z,95778.00
2019-02-08T06:19:14.705Z,95784.00
2019-02-08T06:22:23.405Z,95770.00
2019-02-08T06:25:52.389Z,95775.00
2019-02-08T06:28:34.739Z,95784.00
2019-02-08T06:31:24.255Z,95777.00
2019-02-08T06:34:07.021Z,95768.00
2019-02-08T06:40:03.036Z,95763.00
2019-02-08T06:43:03.543Z,95774.00
2019-02-08T06:48:53.704Z,95775.00
2019-02-08T06:51:35.376Z,95776.00
2019-02-08T06:54:25.080Z,95778.00
2019-02-08T07:00:52.395Z,95777.00
2019-02-08T07:03:50.764Z,95761.00
2019-02-08T07:07:01.504Z,95768.00
2019-02-08T07:10:03.079Z,95766.00
2019-02-08T07:13:11.495Z,95766.00
2019-02-08T07:16:12.223Z,95771.00
2019-02-08T07:19:20.886Z,95764.00
2019-02-08T07:22:10.765Z,95787.00
2019-02-08T07:28:21.590Z,95789.00
2019-02-08T07:31:23.390Z,95789.00
2019-02-08T07:37:24.477Z,95781.00
2019-02-08T07:40:20.436Z,95778.00
2019-02-08T07:46:24.562Z,95780.00
2019-02-08T07:52:22.761Z,95773.00
2019-02-08T07:58:55.223Z,95773.00
2019-02-08T08:01:56.994Z,95778.00
2019-02-08T08:08:13.547Z,95785.00
2019-02-08T08:11:13.069Z,95781.00
2019-02-08T08:17:35.747Z,95772.00
2019-02-08T08:23:57.775Z,95777.00
2019-02-08T08:26:58.392Z,95773.00
2019-02-08T08:37:11.828Z,95779.00
2019-02-08T08:40:12.814Z,95773.00
2019-02-08T08:46:52.714Z,95773.00
2019-02-08T08:50:29.894Z,95781.00
2019-02-08T08:53:57.534Z,95775.00
2019-02-08T09:00:42.868Z,95775.00
2019-02-08T09:07:21.159Z,95763.00
2019-02-08T09:10:48.763Z,95765.00
2019-02-08T09:13:35.122Z,95757.00
2019-02-08T09:20:32.335Z,95760.00
2019-02-08T09:23:36.769Z,95763.00
2019-02-08T09:27:04.402Z,95756.00
2019-02-08T09:30:05.947Z,95752.00
2019-02-08T09:33:33.555Z,95747.00
2019-02-08T09:36:34.709Z,95747.00
2019-02-08T09:40:02.316Z,95741.00
2019-02-08T09:43:03.756Z,95738.00
2019-02-08T09:50:11.104Z,95743.00
2019-02-08T09:53:12.780Z,95741.00
2019-02-08T09:56:40.694Z,95739.00
2019-02-08T09:59:42.250Z,95738.00
2019-02-08T10:03:10.060Z,95731.00
2019-02-08T10:06:11.726Z,95738.00
2019-02-08T10:09:39.368Z,95733.00
2019-02-08T10:12:40.892Z,95735.00
2019-02-08T10:16:08.550Z,95720.00
2019-02-08T10:22:44.341Z,95728.00
2019-02-08T10:29:30.387Z,95731.00
2019-02-08T10:32:32.048Z,95722.00
2019-02-08T10:35:59.683Z,95721.00
2019-02-08T10:39:01.278Z,95708.00
2019-02-08T10:42:28.902Z,95706.00
2019-02-08T10:45:33.311Z,95690.00
2019-02-08T10:48:35.808Z,95688.00
2019-02-08T10:52:03.451Z,95691.00
2019-02-08T10:55:04.743Z,95694.00
2019-02-08T10:58:32.471Z,95690.00
2019-02-08T11:01:41.763Z,95691.00
2019-02-08T11:05:06.280Z,95703.00
2019-02-08T11:08:08.175Z,95685.00
2019-02-08T11:11:35.843Z,95695.00
2019-02-08T11:15:03.485Z,95686.00
2019-02-08T11:21:16.260Z,95668.00
2019-02-08T11:23:58.516Z,95662.00
2019-02-08T11:26:41.760Z,95660.00
2019-02-08T11:32:43.540Z,95653.00
2019-02-08T11:38:35.377Z,95647.00
2019-02-08T11:41:17.831Z,95657.00
2019-02-08T11:47:01.070Z,95641.00
2019-02-08T11:49:50.831Z,95644.00
2019-02-08T11:52:40.370Z,95642.00
2019-02-08T11:55:29.943Z,95638.00
2019-02-08T11:58:11.706Z,95647.00
2019-02-08T12:04:09.378Z,95635.00
2019-02-08T12:06:58.981Z,95633.00
2019-02-08T12:09:40.829Z,95635.00
2019-02-08T12:12:49.248Z,95625.00
2019-02-08T12:15:31.561Z,95622.00
2019-02-08T12:18:21.095Z,95625.00
2019-02-08T12:21:03.092Z,95615.00
2019-02-08T12:23:52.734Z,95609.00
2019-02-08T12:26:37.996Z,95606.00
2019-02-08T12:29:26.629Z,95600.00
2019-02-08T12:32:09.168Z,95605.00
2019-02-08T12:35:17.593Z,95605.00
2019-02-08T12:40:56.784Z,95585.00
2019-02-08T12:43:46.299Z,95594.00
2019-02-08T12:46:28.687Z,95580.00
2019-02-08T12:49:18.200Z,95568.00
2019-02-08T12:52:00.615Z,95570.00
2019-02-08T12:54:50.206Z,95571.00
2019-02-08T12:57:39.807Z,95556.00
2019-02-08T13:00:29.603Z,95557.00
2019-02-08T13:03:13.539Z,95550.00
2019-02-08T13:05:55.341Z,95547.00
2019-02-08T13:11:52.934Z,95536.00
2019-02-08T13:15:02.429Z,95543.00
2019-02-08T13:17:45.029Z,95528.00
2019-02-08T13:20:34.568Z,95533.00
2019-02-08T13:23:17.399Z,95525.00
2019-02-08T13:25:59.946Z,95533.00
2019-02-08T13:28:49.477Z,95519.00
2019-02-08T13:31:31.958Z,95514.00
2019-02-08T13:34:21.501Z,95519.00
2019-02-08T13:37:03.488Z,95511.00
2019-02-08T13:46:08.506Z,95496.00
2019-02-08T13:48:50.725Z,95493.00
2019-02-08T13:51:40.368Z,95497.00
2019-02-08T13:54:23.005Z,95496.00
2019-02-08T13:57:12.735Z,95499.00
2019-02-08T13:59:55.163Z,95496.00
2019-02-08T14:02:44.707Z,95505.00
2019-02-08T14:05:27.624Z,95494.00
2019-02-08T14:08:09.732Z,95491.00
2019-02-08T14:13:52.305Z,95489.00
2019-02-08T14:16:43.902Z,95487.00
2019-02-08T14:19:52.315Z,95492.00
2019-02-08T14:23:02.817Z,95480.00
2019-02-08T14:25:44.523Z,95485.00
2019-02-08T14:28:52.929Z,95474.00
2019-02-08T14:31:35.097Z,95468.00
2019-02-08T14:34:43.955Z,95474.00
2019-02-08T14:37:27.881Z,95459.00
2019-02-08T14:43:45.236Z,95461.00
2019-02-08T14:49:35.551Z,95449.00
2019-02-08T14:52:17.624Z,95442.00
2019-02-08T14:55:26.682Z,95431.00
2019-02-08T14:58:08.730Z,95420.00
2019-02-08T15:07:05.029Z,95413.00
2019-02-08T15:09:54.546Z,95404.00
2019-02-08T15:12:42.912Z,95398.00
2019-02-08T15:15:30.972Z,95396.00
2019-02-08T15:18:14.058Z,95399.00
2019-02-08T15:24:10.454Z,95395.00
2019-02-08T15:33:08.060Z,95393.00
2019-02-08T15:35:56.505Z,95381.00
2019-02-08T15:38:44.489Z,95382.00
2019-02-08T15:41:27.996Z,95379.00
2019-02-08T15:44:09.957Z,95374.00
2019-02-08T15:46:52.453Z,95376.00
2019-02-08T15:52:49.681Z,95377.00
2019-02-08T15:59:09.306Z,95376.00
2019-02-08T16:01:51.362Z,95374.00
2019-02-08T16:04:40.904Z,95367.00
2019-02-08T16:07:23.076Z,95365.00
2019-02-08T16:13:20.993Z,95353.00
2019-02-08T16:16:22.031Z,95361.00
2019-02-08T16:22:04.884Z,95349.00
2019-02-08T16:24:54.616Z,95342.00
2019-02-08T16:27:44.133Z,95332.00
2019-02-08T16:30:45.018Z,95323.00
2019-02-08T16:36:26.791Z,95334.00
2019-02-08T16:39:27.727Z,95328.00
2019-02-08T16:42:17.283Z,95326.00
2019-02-08T16:44:59.199Z,95320.00
2019-02-08T16:50:56.471Z,95306.00
2019-02-08T16:53:53.297Z,95308.00
2019-02-08T16:56:31.540Z,95317.00
2019-02-08T17:02:29.497Z,95310.00
2019-02-08T17:08:45.917Z,95296.00
2019-02-08T17:11:27.875Z,95294.00
2019-02-08T17:14:17.437Z,95295.00
2019-02-08T17:16:59.822Z,95293.00
2019-02-08T17:19:49.283Z,95288.00
2019-02-08T17:22:31.628Z,95297.00
2019-02-08T17:28:29.949Z,95300.00
2019-02-08T17:31:19.570Z,95303.00
2019-02-08T17:34:04.915Z,95301.00
2019-02-08T17:36:47.360Z,95300.00
2019-02-08T17:39:36.889Z,95303.00
2019-02-08T17:42:19.214Z,95296.00
2019-02-08T17:48:31.426Z,95291.00
2019-02-08T17:51:13.672Z,95298.00
2019-02-08T17:54:03.537Z,95296.00
2019-02-08T17:56:45.637Z,95278.00
2019-02-08T18:02:45.235Z,95279.00
2019-02-08T18:08:37.677Z,95269.00
2019-02-08T18:11:19.861Z,95264.00
2019-02-08T18:14:48.963Z,95274.00
2019-02-08T18:17:31.907Z,95275.00
2019-02-08T18:23:47.129Z,95274.00
2019-02-08T18:26:29.049Z,95272.00
2019-02-08T18:29:58.891Z,95258.00
2019-02-08T18:32:48.528Z,95262.00
2019-02-08T18:35:38.168Z,95261.00
2019-02-08T18:38:38.735Z,95255.00
2019-02-08T18:44:22.840Z,95243.00
2019-02-08T18:47:31.632Z,95233.00
2019-02-08T18:53:40.687Z,95232.00
2019-02-08T18:56:22.377Z,95233.00
2019-02-08T18:59:30.891Z,95227.00
2019-02-08T19:02:13.292Z,95231.00
2019-02-08T19:08:00.063Z,95231.00
2019-02-08T19:10:42.812Z,95223.00
2019-02-08T19:13:51.484Z,95226.00
2019-02-08T19:16:33.783Z,95220.00
2019-02-08T19:19:24.158Z,95219.00
2019-02-08T19:22:09.303Z,95219.00
2019-02-08T19:31:18.998Z,95203.00
2019-02-08T19:34:08.659Z,95196.00
2019-02-08T19:36:51.703Z,95201.00
2019-02-08T19:42:43.376Z,95185.00
2019-02-08T19:45:33.431Z,95186.00
2019-02-08T19:48:15.595Z,95180.00
2019-02-08T19:53:58.616Z,95186.00
2019-02-08T19:59:57.015Z,95186.00
2019-02-08T20:18:24.246Z,95172.00
2019-02-08T20:21:14.046Z,95167.00
2019-02-08T20:23:55.806Z,95165.00
2019-02-08T20:29:47.573Z,95164.00
2019-02-08T20:32:30.134Z,95166.00
2019-02-08T20:35:59.807Z,95162.00
2019-02-08T20:38:42.340Z,95154.00
2019-02-08T20:41:32.006Z,95168.00
2019-02-08T20:44:18.801Z,95158.00
2019-02-08T20:47:05.144Z,95156.00
2019-02-08T20:59:14.291Z,95159.00
2019-02-08T21:01:56.791Z,95155.00
2019-02-08T21:04:46.315Z,95153.00
2019-02-08T21:07:28.311Z,95157.00
2019-02-08T21:10:36.798Z,95159.00
2019-02-08T21:13:20.013Z,95152.00
2019-02-08T21:16:09.519Z,95147.00
2019-02-08T21:18:51.992Z,95147.00
2019-02-08T21:21:41.601Z,95149.00
2019-02-08T21:24:24.094Z,95151.00
2019-02-08T21:27:13.747Z,95138.00
2019-02-08T21:30:44.431Z,95142.00
2019-02-08T21:33:27.323Z,95145.00
2019-02-08T21:36:16.911Z,95141.00
2019-02-08T21:38:58.908Z,95139.00
2019-02-08T21:44:40.841Z,95149.00
2019-02-08T21:47:32.911Z,95137.00
2019-02-08T21:53:37.707Z,95138.00
2019-02-08T21:56:20.065Z,95122.00
2019-02-08T21:59:09.535Z,95123.00
2019-02-08T22:01:51.971Z,95124.00
2019-02-08T22:04:41.669Z,95116.00
2019-02-08T22:07:25.409Z,95138.00
2019-02-08T22:13:07.510Z,95123.00
2019-02-08T22:15:57.076Z,95129.00
2019-02-08T22:18:46.609Z,95106.00
2019-02-08T22:21:28.987Z,95124.00
2019-02-08T22:24:18.535Z,95132.00
2019-02-08T22:27:02.873Z,95103.00
2019-02-08T22:30:11.572Z,95107.00
2019-02-08T22:32:54.684Z,95100.00
2019-02-08T22:35:44.189Z,95102.00
2019-02-08T22:38:26.822Z,95098.00
2019-02-08T22:41:19.332Z,95089.00
2019-02-08T22:44:01.162Z,95083.00
2019-02-08T22:46:53.004Z,95067.00
2019-02-08T22:49:35.436Z,95066.00
2019-02-08T22:55:31.898Z,95048.00
2019-02-08T23:02:17.449Z,95043.00
2019-02-08T23:05:01.608Z,95048.00
2019-02-08T23:08:10.677Z,95043.00
2019-02-08T23:10:53.809Z,95049.00
2019-02-08T23:23:29.354Z,95033.00
2019-02-08T23:26:12.018Z,95034.00
2019-02-08T23:29:01.616Z,95021.00
2019-02-08T23:31:43.435Z,95019.00
2019-02-08T23:37:39.890Z,95018.00
2019-02-08T23:40:29.412Z,95014.00
2019-02-08T23:43:19.716Z,95010.00
2019-02-08T23:46:09.228Z,95002.00
2019-02-08T23:48:51.306Z,95011.00
2019-02-08T23:51:40.938Z,95007.00
2019-02-08T23:54:22.818Z,94993.00
2019-02-08T23:57:12.551Z,94993.00
2019-02-08T23:59:55.102Z,94995.00
